sensor_id;sensor_type;location;lat;lon;timestamp;temperature;humidity
41294;DHT22;27037;52.010;4.446;2022-11-20T00:00:01;0.40;99.90
41294;DHT22;27037;52.010;4.446;2022-11-20T00:02:26;0.40;99.90
41294;DHT22;27037;52.010;4.446;2022-11-20T00:04:52;0.40;99.90
41294;DHT22;27037;52.010;4.446;2022-11-20T00:07:17;0.30;99.90
41294;DHT22;27037;52.010;4.446;2022-11-20T00:09:43;0.30;99.90
41294;DHT22;27037;52.010;4.446;2022-11-20T00:12:08;0.30;99.90
41294;DHT22;27037;52.010;4.446;2022-11-20T00:14:34;0.30;99.90
41294;DHT22;27037;52.010;4.446;2022-11-20T00:16:59;0.30;99.90
41294;DHT22;27037;52.010;4.446;2022-11-20T00:19:25;0.20;99.90
41294;DHT22;27037;52.010;4.446;2022-11-20T00:21:51;0.30;99.90
41294;DHT22;27037;52.010;4.446;2022-11-20T00:24:19;0.30;99.90
41294;DHT22;27037;52.010;4.446;2022-11-20T00:26:44;0.20;99.90
41294;DHT22;27037;52.010;4.446;2022-11-20T00:29:10;0.20;99.90
41294;DHT22;27037;52.010;4.446;2022-11-20T00:31:36;0.20;99.90
41294;DHT22;27037;52.010;4.446;2022-11-20T00:34:02;0.20;99.90
41294;DHT22;27037;52.010;4.446;2022-11-20T00:36:28;0.10;99.90
41294;DHT22;27037;52.010;4.446;2022-11-20T00:38:56;0.10;99.90
41294;DHT22;27037;52.010;4.446;2022-11-20T00:41:23;0.10;99.90
41294;DHT22;27037;52.010;4.446;2022-11-20T00:43:48;0.10;99.90
41294;DHT22;27037;52.010;4.446;2022-11-20T00:46:17;0.10;99.90
41294;DHT22;27037;52.010;4.446;2022-11-20T00:48:43;0.10;99.90
41294;DHT22;27037;52.010;4.446;2022-11-20T00:51:11;0.00;99.90
41294;DHT22;27037;52.010;4.446;2022-11-20T00:53:37;0.10;99.90
41294;DHT22;27037;52.010;4.446;2022-11-20T00:56:05;0.10;99.90
41294;DHT22;27037;52.010;4.446;2022-11-20T00:58:37;0.10;99.90
41294;DHT22;27037;52.010;4.446;2022-11-20T01:01:05;0.00;99.90
41294;DHT22;27037;52.010;4.446;2022-11-20T01:03:32;0.00;99.90
41294;DHT22;27037;52.010;4.446;2022-11-20T01:06:02;0.00;99.90
41294;DHT22;27037;52.010;4.446;2022-11-20T01:08:32;0.00;99.90
41294;DHT22;27037;52.010;4.446;2022-11-20T01:11:02;0.00;99.90
41294;DHT22;27037;52.010;4.446;2022-11-20T01:13:30;0.00;99.90
41294;DHT22;27037;52.010;4.446;2022-11-20T01:16:14;-0.10;99.90
41294;DHT22;27037;52.010;4.446;2022-11-20T01:18:42;-0.10;99.90
41294;DHT22;27037;52.010;4.446;2022-11-20T01:21:19;-0.10;99.90
41294;DHT22;27037;52.010;4.446;2022-11-20T01:23:45;-0.10;99.90
41294;DHT22;27037;52.010;4.446;2022-11-20T01:26:17;-0.10;99.90
41294;DHT22;27037;52.010;4.446;2022-11-20T01:28:43;-0.10;99.90
41294;DHT22;27037;52.010;4.446;2022-11-20T01:31:15;-0.10;99.90
41294;DHT22;27037;52.010;4.446;2022-11-20T01:33:41;-0.10;99.90
41294;DHT22;27037;52.010;4.446;2022-11-20T01:36:08;-0.10;99.90
41294;DHT22;27037;52.010;4.446;2022-11-20T01:38:34;-0.20;99.90
41294;DHT22;27037;52.010;4.446;2022-11-20T01:41:00;-0.20;99.90
41294;DHT22;27037;52.010;4.446;2022-11-20T01:43:26;-0.20;99.90
41294;DHT22;27037;52.010;4.446;2022-11-20T01:46:02;-0.20;99.90
41294;DHT22;27037;52.010;4.446;2022-11-20T01:48:48;-0.20;99.90
41294;DHT22;27037;52.010;4.446;2022-11-20T01:51:21;-0.20;99.90
41294;DHT22;27037;52.010;4.446;2022-11-20T01:53:48;-0.20;99.90
41294;DHT22;27037;52.010;4.446;2022-11-20T01:56:15;-0.20;99.90
41294;DHT22;27037;52.010;4.446;2022-11-20T01:58:47;-0.20;99.90
41294;DHT22;27037;52.010;4.446;2022-11-20T02:01:14;-0.20;99.90
41294;DHT22;27037;52.010;4.446;2022-11-20T02:03:40;-0.30;99.90
41294;DHT22;27037;52.010;4.446;2022-11-20T02:06:26;-0.30;99.90
41294;DHT22;27037;52.010;4.446;2022-11-20T02:08:54;-0.30;99.90
41294;DHT22;27037;52.010;4.446;2022-11-20T02:11:20;-0.30;99.90
41294;DHT22;27037;52.010;4.446;2022-11-20T02:13:46;-0.30;99.90
41294;DHT22;27037;52.010;4.446;2022-11-20T02:16:22;-0.30;99.90
41294;DHT22;27037;52.010;4.446;2022-11-20T02:18:49;-0.30;99.90
41294;DHT22;27037;52.010;4.446;2022-11-20T02:21:27;-0.40;99.90
41294;DHT22;27037;52.010;4.446;2022-11-20T02:24:17;-0.40;99.90
41294;DHT22;27037;52.010;4.446;2022-11-20T02:27:07;-0.40;99.90
41294;DHT22;27037;52.010;4.446;2022-11-20T02:34:45;-0.40;99.90
41294;DHT22;27037;52.010;4.446;2022-11-20T02:37:10;-0.50;99.90
41294;DHT22;27037;52.010;4.446;2022-11-20T02:39:36;-0.50;99.90
41294;DHT22;27037;52.010;4.446;2022-11-20T02:42:01;-0.50;99.90
41294;DHT22;27037;52.010;4.446;2022-11-20T02:44:27;-0.50;99.90
41294;DHT22;27037;52.010;4.446;2022-11-20T02:46:53;-0.50;99.90
41294;DHT22;27037;52.010;4.446;2022-11-20T02:49:18;-0.50;99.90
41294;DHT22;27037;52.010;4.446;2022-11-20T02:51:44;-0.50;99.90
41294;DHT22;27037;52.010;4.446;2022-11-20T02:54:09;-0.50;99.90
41294;DHT22;27037;52.010;4.446;2022-11-20T02:56:38;-0.50;99.90
41294;DHT22;27037;52.010;4.446;2022-11-20T02:59:03;-0.50;99.90
41294;DHT22;27037;52.010;4.446;2022-11-20T03:01:30;-0.50;99.90
41294;DHT22;27037;52.010;4.446;2022-11-20T03:03:55;-0.50;99.90
41294;DHT22;27037;52.010;4.446;2022-11-20T03:06:21;-0.50;99.90
41294;DHT22;27037;52.010;4.446;2022-11-20T03:08:47;-0.50;99.90
41294;DHT22;27037;52.010;4.446;2022-11-20T03:11:13;-0.50;99.90
41294;DHT22;27037;52.010;4.446;2022-11-20T03:13:38;-0.50;99.90
41294;DHT22;27037;52.010;4.446;2022-11-20T03:16:13;-0.50;99.90
41294;DHT22;27037;52.010;4.446;2022-11-20T03:18:40;-0.50;99.90
41294;DHT22;27037;52.010;4.446;2022-11-20T03:21:06;-0.50;99.90
41294;DHT22;27037;52.010;4.446;2022-11-20T03:23:32;-0.50;99.90
41294;DHT22;27037;52.010;4.446;2022-11-20T03:26:18;-0.50;99.90
41294;DHT22;27037;52.010;4.446;2022-11-20T03:28:52;-0.50;99.90
41294;DHT22;27037;52.010;4.446;2022-11-20T03:31:27;-0.50;99.90
41294;DHT22;27037;52.010;4.446;2022-11-20T03:33:53;-0.50;99.90
41294;DHT22;27037;52.010;4.446;2022-11-20T03:36:20;-0.60;99.90
41294;DHT22;27037;52.010;4.446;2022-11-20T03:38:46;-0.60;99.90
41294;DHT22;27037;52.010;4.446;2022-11-20T03:41:14;-0.60;99.90
41294;DHT22;27037;52.010;4.446;2022-11-20T03:43:40;-0.60;99.90
41294;DHT22;27037;52.010;4.446;2022-11-20T03:46:07;-0.60;99.90
41294;DHT22;27037;52.010;4.446;2022-11-20T03:48:33;-0.60;99.90
41294;DHT22;27037;52.010;4.446;2022-11-20T03:51:22;-0.60;99.90
41294;DHT22;27037;52.010;4.446;2022-11-20T03:53:49;-0.60;99.90
41294;DHT22;27037;52.010;4.446;2022-11-20T03:56:17;-0.60;99.90
41294;DHT22;27037;52.010;4.446;2022-11-20T03:58:43;-0.70;99.90
41294;DHT22;27037;52.010;4.446;2022-11-20T04:01:30;-0.70;99.90
41294;DHT22;27037;52.010;4.446;2022-11-20T04:03:57;-0.70;99.90
41294;DHT22;27037;52.010;4.446;2022-11-20T04:06:32;-0.70;99.90
41294;DHT22;27037;52.010;4.446;2022-11-20T04:08:58;-0.70;99.90
41294;DHT22;27037;52.010;4.446;2022-11-20T04:11:25;-0.70;99.90
41294;DHT22;27037;52.010;4.446;2022-11-20T04:13:53;-0.70;99.90
41294;DHT22;27037;52.010;4.446;2022-11-20T04:16:20;-0.70;99.90
41294;DHT22;27037;52.010;4.446;2022-11-20T04:18:46;-0.70;99.90
41294;DHT22;27037;52.010;4.446;2022-11-20T04:21:12;-0.70;99.90
41294;DHT22;27037;52.010;4.446;2022-11-20T04:23:38;-0.70;99.90
41294;DHT22;27037;52.010;4.446;2022-11-20T04:26:06;-0.70;99.90
41294;DHT22;27037;52.010;4.446;2022-11-20T04:28:32;-0.70;99.90
41294;DHT22;27037;52.010;4.446;2022-11-20T04:31:02;-0.70;99.90
41294;DHT22;27037;52.010;4.446;2022-11-20T04:33:28;-0.70;99.90
41294;DHT22;27037;52.010;4.446;2022-11-20T04:35:53;-0.70;99.90
41294;DHT22;27037;52.010;4.446;2022-11-20T04:38:19;-0.70;99.90
41294;DHT22;27037;52.010;4.446;2022-11-20T04:40:44;-0.70;99.90
41294;DHT22;27037;52.010;4.446;2022-11-20T04:43:10;-0.70;99.90
41294;DHT22;27037;52.010;4.446;2022-11-20T04:45:35;-0.70;99.90
41294;DHT22;27037;52.010;4.446;2022-11-20T04:48:01;-0.70;99.90
41294;DHT22;27037;52.010;4.446;2022-11-20T04:50:27;-0.70;99.90
41294;DHT22;27037;52.010;4.446;2022-11-20T04:52:52;-0.70;99.90
41294;DHT22;27037;52.010;4.446;2022-11-20T04:55:18;-0.70;99.90
41294;DHT22;27037;52.010;4.446;2022-11-20T04:57:43;-0.70;99.90
41294;DHT22;27037;52.010;4.446;2022-11-20T05:00:09;-0.70;99.90
41294;DHT22;27037;52.010;4.446;2022-11-20T05:02:35;-0.70;99.90
41294;DHT22;27037;52.010;4.446;2022-11-20T05:05:00;-0.70;99.90
41294;DHT22;27037;52.010;4.446;2022-11-20T05:07:26;-0.70;99.90
41294;DHT22;27037;52.010;4.446;2022-11-20T05:09:52;-0.70;99.90
41294;DHT22;27037;52.010;4.446;2022-11-20T05:12:17;-0.70;99.90
41294;DHT22;27037;52.010;4.446;2022-11-20T05:14:43;-0.80;99.90
41294;DHT22;27037;52.010;4.446;2022-11-20T05:17:11;-0.80;99.90
41294;DHT22;27037;52.010;4.446;2022-11-20T05:19:36;-0.80;99.90
41294;DHT22;27037;52.010;4.446;2022-11-20T05:22:02;-0.80;99.90
41294;DHT22;27037;52.010;4.446;2022-11-20T05:24:29;-0.80;99.90
41294;DHT22;27037;52.010;4.446;2022-11-20T05:26:54;-0.80;99.90
41294;DHT22;27037;52.010;4.446;2022-11-20T05:29:20;-0.80;99.90
41294;DHT22;27037;52.010;4.446;2022-11-20T05:31:45;-0.80;99.90
41294;DHT22;27037;52.010;4.446;2022-11-20T05:34:11;-0.80;99.90
41294;DHT22;27037;52.010;4.446;2022-11-20T05:36:37;-0.80;99.90
41294;DHT22;27037;52.010;4.446;2022-11-20T05:39:02;-0.80;99.90
41294;DHT22;27037;52.010;4.446;2022-11-20T05:41:28;-0.80;99.90
41294;DHT22;27037;52.010;4.446;2022-11-20T05:43:56;-0.80;99.90
41294;DHT22;27037;52.010;4.446;2022-11-20T05:46:22;-0.80;99.90
41294;DHT22;27037;52.010;4.446;2022-11-20T05:48:47;-0.80;99.90
41294;DHT22;27037;52.010;4.446;2022-11-20T05:51:15;-0.80;99.90
41294;DHT22;27037;52.010;4.446;2022-11-20T05:53:41;-0.80;99.90
41294;DHT22;27037;52.010;4.446;2022-11-20T05:56:10;-0.80;99.90
41294;DHT22;27037;52.010;4.446;2022-11-20T05:58:36;-0.80;99.90
41294;DHT22;27037;52.010;4.446;2022-11-20T06:01:21;-0.80;99.90
41294;DHT22;27037;52.010;4.446;2022-11-20T06:03:47;-0.80;99.90
41294;DHT22;27037;52.010;4.446;2022-11-20T06:06:15;-0.70;99.90
41294;DHT22;27037;52.010;4.446;2022-11-20T06:08:41;-0.70;99.90
41294;DHT22;27037;52.010;4.446;2022-11-20T06:11:09;-0.70;99.90
41294;DHT22;27037;52.010;4.446;2022-11-20T06:13:36;-0.80;99.90
41294;DHT22;27037;52.010;4.446;2022-11-20T06:16:02;-0.70;99.90
41294;DHT22;27037;52.010;4.446;2022-11-20T06:18:28;-0.70;99.90
41294;DHT22;27037;52.010;4.446;2022-11-20T06:21:05;-0.70;99.90
41294;DHT22;27037;52.010;4.446;2022-11-20T06:23:32;-0.70;99.90
41294;DHT22;27037;52.010;4.446;2022-11-20T06:28:29;-0.70;99.90
41294;DHT22;27037;52.010;4.446;2022-11-20T06:30:55;-0.70;99.90
41294;DHT22;27037;52.010;4.446;2022-11-20T06:33:20;-0.60;99.90
41294;DHT22;27037;52.010;4.446;2022-11-20T06:35:46;-0.60;99.90
41294;DHT22;27037;52.010;4.446;2022-11-20T06:38:11;-0.60;99.90
41294;DHT22;27037;52.010;4.446;2022-11-20T06:40:40;-0.60;99.90
41294;DHT22;27037;52.010;4.446;2022-11-20T06:43:06;-0.60;99.90
41294;DHT22;27037;52.010;4.446;2022-11-20T06:45:31;-0.50;99.90
41294;DHT22;27037;52.010;4.446;2022-11-20T06:47:57;-0.50;99.90
41294;DHT22;27037;52.010;4.446;2022-11-20T06:50:23;-0.50;99.90
41294;DHT22;27037;52.010;4.446;2022-11-20T06:52:49;-0.50;99.90
41294;DHT22;27037;52.010;4.446;2022-11-20T06:55:14;-0.40;99.90
41294;DHT22;27037;52.010;4.446;2022-11-20T06:57:40;-0.40;99.90
41294;DHT22;27037;52.010;4.446;2022-11-20T07:00:06;-0.40;99.90
41294;DHT22;27037;52.010;4.446;2022-11-20T07:02:32;-0.30;99.90
41294;DHT22;27037;52.010;4.446;2022-11-20T07:04:57;-0.30;99.90
41294;DHT22;27037;52.010;4.446;2022-11-20T07:07:23;-0.30;99.90
41294;DHT22;27037;52.010;4.446;2022-11-20T07:09:48;-0.20;99.90
41294;DHT22;27037;52.010;4.446;2022-11-20T07:12:14;-0.20;99.90
41294;DHT22;27037;52.010;4.446;2022-11-20T07:14:39;-0.20;99.90
41294;DHT22;27037;52.010;4.446;2022-11-20T07:17:05;-0.10;99.90
41294;DHT22;27037;52.010;4.446;2022-11-20T07:19:30;-0.10;99.90
41294;DHT22;27037;52.010;4.446;2022-11-20T07:21:56;-0.10;99.90
41294;DHT22;27037;52.010;4.446;2022-11-20T07:24:21;0.00;99.90
41294;DHT22;27037;52.010;4.446;2022-11-20T07:26:47;0.00;99.90
41294;DHT22;27037;52.010;4.446;2022-11-20T07:29:16;0.10;99.90
41294;DHT22;27037;52.010;4.446;2022-11-20T07:31:42;0.10;99.90
41294;DHT22;27037;52.010;4.446;2022-11-20T07:34:08;0.10;99.90
41294;DHT22;27037;52.010;4.446;2022-11-20T07:36:34;0.20;99.90
41294;DHT22;27037;52.010;4.446;2022-11-20T07:38:59;0.20;99.90
41294;DHT22;27037;52.010;4.446;2022-11-20T07:41:25;0.20;99.90
41294;DHT22;27037;52.010;4.446;2022-11-20T07:43:50;0.30;99.90
41294;DHT22;27037;52.010;4.446;2022-11-20T07:46:16;0.30;99.90
41294;DHT22;27037;52.010;4.446;2022-11-20T07:48:42;0.30;99.90
41294;DHT22;27037;52.010;4.446;2022-11-20T07:51:07;0.30;99.90
41294;DHT22;27037;52.010;4.446;2022-11-20T07:53:33;0.30;99.90
41294;DHT22;27037;52.010;4.446;2022-11-20T07:56:02;0.40;99.90
41294;DHT22;27037;52.010;4.446;2022-11-20T07:58:31;0.40;99.90
41294;DHT22;27037;52.010;4.446;2022-11-20T08:01:02;0.50;99.90
41294;DHT22;27037;52.010;4.446;2022-11-20T08:03:28;0.50;99.90
41294;DHT22;27037;52.010;4.446;2022-11-20T08:05:54;0.50;99.90
41294;DHT22;27037;52.010;4.446;2022-11-20T08:08:19;0.60;99.90
41294;DHT22;27037;52.010;4.446;2022-11-20T08:10:46;0.60;99.90
41294;DHT22;27037;52.010;4.446;2022-11-20T08:13:12;0.70;99.90
41294;DHT22;27037;52.010;4.446;2022-11-20T08:15:56;0.70;99.90
41294;DHT22;27037;52.010;4.446;2022-11-20T08:18:21;0.80;99.90
41294;DHT22;27037;52.010;4.446;2022-11-20T08:20:47;0.80;99.90
41294;DHT22;27037;52.010;4.446;2022-11-20T08:23:12;0.80;99.90
41294;DHT22;27037;52.010;4.446;2022-11-20T08:25:38;0.90;99.90
41294;DHT22;27037;52.010;4.446;2022-11-20T08:28:07;0.90;99.90
41294;DHT22;27037;52.010;4.446;2022-11-20T08:30:33;0.90;99.90
41294;DHT22;27037;52.010;4.446;2022-11-20T08:33:05;1.00;99.90
41294;DHT22;27037;52.010;4.446;2022-11-20T08:35:35;1.10;99.90
41294;DHT22;27037;52.010;4.446;2022-11-20T08:38:02;1.10;99.90
41294;DHT22;27037;52.010;4.446;2022-11-20T08:40:28;1.10;99.90
41294;DHT22;27037;52.010;4.446;2022-11-20T08:42:54;1.20;99.90
41294;DHT22;27037;52.010;4.446;2022-11-20T08:45:20;1.20;99.90
41294;DHT22;27037;52.010;4.446;2022-11-20T08:47:45;1.30;99.90
41294;DHT22;27037;52.010;4.446;2022-11-20T08:50:13;1.30;99.90
41294;DHT22;27037;52.010;4.446;2022-11-20T08:52:39;1.30;99.90
41294;DHT22;27037;52.010;4.446;2022-11-20T08:55:06;1.40;99.90
41294;DHT22;27037;52.010;4.446;2022-11-20T08:57:36;1.40;99.90
41294;DHT22;27037;52.010;4.446;2022-11-20T09:00:04;1.50;99.90
41294;DHT22;27037;52.010;4.446;2022-11-20T09:02:30;1.50;99.90
41294;DHT22;27037;52.010;4.446;2022-11-20T09:04:57;1.50;99.90
41294;DHT22;27037;52.010;4.446;2022-11-20T09:07:23;1.50;99.90
41294;DHT22;27037;52.010;4.446;2022-11-20T09:09:49;1.50;99.90
41294;DHT22;27037;52.010;4.446;2022-11-20T09:12:14;1.60;99.90
41294;DHT22;27037;52.010;4.446;2022-11-20T09:14:40;1.60;99.90
41294;DHT22;27037;52.010;4.446;2022-11-20T09:17:05;1.60;99.90
41294;DHT22;27037;52.010;4.446;2022-11-20T09:19:33;1.70;99.90
41294;DHT22;27037;52.010;4.446;2022-11-20T09:21:58;1.70;99.90
41294;DHT22;27037;52.010;4.446;2022-11-20T09:24:25;1.80;99.90
41294;DHT22;27037;52.010;4.446;2022-11-20T09:26:51;1.80;99.90
41294;DHT22;27037;52.010;4.446;2022-11-20T09:29:17;1.90;99.90
41294;DHT22;27037;52.010;4.446;2022-11-20T09:31:42;1.90;99.90
41294;DHT22;27037;52.010;4.446;2022-11-20T09:34:08;2.00;99.90
41294;DHT22;27037;52.010;4.446;2022-11-20T09:36:33;2.00;99.90
41294;DHT22;27037;52.010;4.446;2022-11-20T09:38:59;2.10;99.90
41294;DHT22;27037;52.010;4.446;2022-11-20T09:46:45;2.20;99.90
41294;DHT22;27037;52.010;4.446;2022-11-20T09:52:28;2.30;99.90
41294;DHT22;27037;52.010;4.446;2022-11-20T09:54:58;2.30;99.90
41294;DHT22;27037;52.010;4.446;2022-11-20T09:57:34;2.40;99.90
41294;DHT22;27037;52.010;4.446;2022-11-20T10:00:03;2.40;99.90
41294;DHT22;27037;52.010;4.446;2022-11-20T10:05:53;2.50;99.90
41294;DHT22;27037;52.010;4.446;2022-11-20T10:08:31;2.50;99.90
41294;DHT22;27037;52.010;4.446;2022-11-20T10:13:42;2.50;99.90
41294;DHT22;27037;52.010;4.446;2022-11-20T10:19:41;2.60;99.90
41294;DHT22;27037;52.010;4.446;2022-11-20T10:25:13;2.60;99.90
41294;DHT22;27037;52.010;4.446;2022-11-20T10:28:07;2.60;99.90
41294;DHT22;27037;52.010;4.446;2022-11-20T10:30:42;2.70;99.90
41294;DHT22;27037;52.010;4.446;2022-11-20T10:33:19;2.70;99.90
41294;DHT22;27037;52.010;4.446;2022-11-20T10:35:57;2.70;99.90
41294;DHT22;27037;52.010;4.446;2022-11-20T10:38:37;2.70;99.90
41294;DHT22;27037;52.010;4.446;2022-11-20T10:41:06;2.70;99.90
41294;DHT22;27037;52.010;4.446;2022-11-20T10:44:20;2.70;99.90
41294;DHT22;27037;52.010;4.446;2022-11-20T10:47:15;2.80;99.90
41294;DHT22;27037;52.010;4.446;2022-11-20T10:49:43;2.80;99.90
41294;DHT22;27037;52.010;4.446;2022-11-20T10:52:49;2.80;99.90
41294;DHT22;27037;52.010;4.446;2022-11-20T10:55:40;2.90;99.90
41294;DHT22;27037;52.010;4.446;2022-11-20T10:58:32;2.90;99.90
41294;DHT22;27037;52.010;4.446;2022-11-20T11:01:05;3.00;99.90
41294;DHT22;27037;52.010;4.446;2022-11-20T11:03:31;3.00;99.90
41294;DHT22;27037;52.010;4.446;2022-11-20T11:08:37;3.10;99.90
41294;DHT22;27037;52.010;4.446;2022-11-20T11:11:33;3.10;99.90
41294;DHT22;27037;52.010;4.446;2022-11-20T11:14:13;3.10;99.90
41294;DHT22;27037;52.010;4.446;2022-11-20T11:16:54;3.20;99.90
41294;DHT22;27037;52.010;4.446;2022-11-20T11:19:20;3.20;99.90
41294;DHT22;27037;52.010;4.446;2022-11-20T11:21:52;3.20;99.90
41294;DHT22;27037;52.010;4.446;2022-11-20T11:24:27;3.30;99.90
41294;DHT22;27037;52.010;4.446;2022-11-20T11:27:01;3.30;99.90
41294;DHT22;27037;52.010;4.446;2022-11-20T11:29:32;3.40;99.90
41294;DHT22;27037;52.010;4.446;2022-11-20T11:32:17;3.40;99.90
41294;DHT22;27037;52.010;4.446;2022-11-20T11:34:43;3.50;99.90
41294;DHT22;27037;52.010;4.446;2022-11-20T11:37:18;3.50;99.90
41294;DHT22;27037;52.010;4.446;2022-11-20T11:39:46;3.50;99.90
41294;DHT22;27037;52.010;4.446;2022-11-20T11:42:16;3.60;99.90
41294;DHT22;27037;52.010;4.446;2022-11-20T11:44:47;3.60;99.90
41294;DHT22;27037;52.010;4.446;2022-11-20T11:47:58;3.60;99.90
41294;DHT22;27037;52.010;4.446;2022-11-20T11:50:27;3.70;99.90
41294;DHT22;27037;52.010;4.446;2022-11-20T11:53:09;3.60;99.90
41294;DHT22;27037;52.010;4.446;2022-11-20T11:55:46;3.70;99.90
41294;DHT22;27037;52.010;4.446;2022-11-20T11:58:52;3.70;99.90
41294;DHT22;27037;52.010;4.446;2022-11-20T12:06:47;3.80;99.90
41294;DHT22;27037;52.010;4.446;2022-11-20T12:09:13;3.80;99.90
41294;DHT22;27037;52.010;4.446;2022-11-20T12:12:04;3.80;99.90
41294;DHT22;27037;52.010;4.446;2022-11-20T12:14:37;3.90;99.90
41294;DHT22;27037;52.010;4.446;2022-11-20T12:17:03;3.80;99.90
41294;DHT22;27037;52.010;4.446;2022-11-20T12:19:31;3.90;99.90
41294;DHT22;27037;52.010;4.446;2022-11-20T12:30:03;4.00;99.90
41294;DHT22;27037;52.010;4.446;2022-11-20T12:41:27;4.00;99.90
41294;DHT22;27037;52.010;4.446;2022-11-20T12:44:33;4.00;99.90
41294;DHT22;27037;52.010;4.446;2022-11-20T12:53:04;4.10;99.90
41294;DHT22;27037;52.010;4.446;2022-11-20T12:58:40;4.00;99.90
41294;DHT22;27037;52.010;4.446;2022-11-20T13:01:40;4.10;99.90
41294;DHT22;27037;52.010;4.446;2022-11-20T13:07:07;4.10;99.90
41294;DHT22;27037;52.010;4.446;2022-11-20T13:09:39;4.10;99.90
41294;DHT22;27037;52.010;4.446;2022-11-20T13:12:29;4.10;99.90
41294;DHT22;27037;52.010;4.446;2022-11-20T13:15:11;4.10;99.90
41294;DHT22;27037;52.010;4.446;2022-11-20T13:20:16;4.20;99.90
41294;DHT22;27037;52.010;4.446;2022-11-20T13:22:45;4.20;99.90
41294;DHT22;27037;52.010;4.446;2022-11-20T13:27:50;4.20;99.90
41294;DHT22;27037;52.010;4.446;2022-11-20T13:30:18;4.20;99.90
41294;DHT22;27037;52.010;4.446;2022-11-20T13:32:55;4.10;99.90
41294;DHT22;27037;52.010;4.446;2022-11-20T13:35:28;4.20;99.90
41294;DHT22;27037;52.010;4.446;2022-11-20T13:38:09;4.20;99.90
41294;DHT22;27037;52.010;4.446;2022-11-20T13:40:38;4.20;99.90
41294;DHT22;27037;52.010;4.446;2022-11-20T13:43:27;4.20;99.90
41294;DHT22;27037;52.010;4.446;2022-11-20T13:45:56;4.10;99.90
41294;DHT22;27037;52.010;4.446;2022-11-20T13:48:26;4.20;99.90
41294;DHT22;27037;52.010;4.446;2022-11-20T13:56:40;4.20;99.90
41294;DHT22;27037;52.010;4.446;2022-11-20T13:59:22;4.10;99.90
41294;DHT22;27037;52.010;4.446;2022-11-20T14:01:53;4.10;99.90
41294;DHT22;27037;52.010;4.446;2022-11-20T14:04:33;4.10;99.90
41294;DHT22;27037;52.010;4.446;2022-11-20T14:06:59;4.10;99.90
41294;DHT22;27037;52.010;4.446;2022-11-20T14:09:30;4.10;99.90
41294;DHT22;27037;52.010;4.446;2022-11-20T14:11:56;4.10;99.90
41294;DHT22;27037;52.010;4.446;2022-11-20T14:14:27;4.00;99.90
41294;DHT22;27037;52.010;4.446;2022-11-20T14:17:08;4.00;99.90
41294;DHT22;27037;52.010;4.446;2022-11-20T14:19:34;4.00;99.90
41294;DHT22;27037;52.010;4.446;2022-11-20T14:22:18;4.00;99.90
41294;DHT22;27037;52.010;4.446;2022-11-20T14:24:45;4.00;99.90
41294;DHT22;27037;52.010;4.446;2022-11-20T14:27:16;4.10;99.90
41294;DHT22;27037;52.010;4.446;2022-11-20T14:29:44;4.10;99.90
41294;DHT22;27037;52.010;4.446;2022-11-20T14:32:11;4.00;99.90
41294;DHT22;27037;52.010;4.446;2022-11-20T14:34:41;4.10;99.90
41294;DHT22;27037;52.010;4.446;2022-11-20T14:37:12;4.10;99.90
41294;DHT22;27037;52.010;4.446;2022-11-20T14:39:46;4.10;99.90
41294;DHT22;27037;52.010;4.446;2022-11-20T14:42:21;4.10;99.90
41294;DHT22;27037;52.010;4.446;2022-11-20T14:44:48;4.10;99.90
41294;DHT22;27037;52.010;4.446;2022-11-20T14:47:27;4.10;99.90
41294;DHT22;27037;52.010;4.446;2022-11-20T14:49:55;4.10;99.90
41294;DHT22;27037;52.010;4.446;2022-11-20T14:52:26;4.10;99.90
41294;DHT22;27037;52.010;4.446;2022-11-20T14:54:53;4.10;99.90
41294;DHT22;27037;52.010;4.446;2022-11-20T14:57:31;4.10;99.90
41294;DHT22;27037;52.010;4.446;2022-11-20T15:02:31;4.10;99.90
41294;DHT22;27037;52.010;4.446;2022-11-20T15:04:58;4.10;99.90
41294;DHT22;27037;52.010;4.446;2022-11-20T15:07:34;4.10;99.90
41294;DHT22;27037;52.010;4.446;2022-11-20T15:10:06;4.10;99.90
41294;DHT22;27037;52.010;4.446;2022-11-20T15:12:34;4.10;99.90
41294;DHT22;27037;52.010;4.446;2022-11-20T15:15:02;4.20;99.90
41294;DHT22;27037;52.010;4.446;2022-11-20T15:17:29;4.20;99.90
41294;DHT22;27037;52.010;4.446;2022-11-20T15:19:55;4.20;99.90
41294;DHT22;27037;52.010;4.446;2022-11-20T15:22:21;4.20;99.90
41294;DHT22;27037;52.010;4.446;2022-11-20T15:24:46;4.20;99.90
41294;DHT22;27037;52.010;4.446;2022-11-20T15:27:12;4.20;99.90
41294;DHT22;27037;52.010;4.446;2022-11-20T15:29:38;4.20;99.90
41294;DHT22;27037;52.010;4.446;2022-11-20T15:32:04;4.20;99.90
41294;DHT22;27037;52.010;4.446;2022-11-20T15:34:29;4.20;99.90
41294;DHT22;27037;52.010;4.446;2022-11-20T15:36:55;4.20;99.90
41294;DHT22;27037;52.010;4.446;2022-11-20T15:39:21;4.20;99.90
41294;DHT22;27037;52.010;4.446;2022-11-20T15:41:46;4.20;99.90
41294;DHT22;27037;52.010;4.446;2022-11-20T15:44:12;4.20;99.90
41294;DHT22;27037;52.010;4.446;2022-11-20T15:46:41;4.20;99.90
41294;DHT22;27037;52.010;4.446;2022-11-20T15:49:16;4.30;99.90
41294;DHT22;27037;52.010;4.446;2022-11-20T15:51:44;4.30;99.90
41294;DHT22;27037;52.010;4.446;2022-11-20T15:54:13;4.20;99.90
41294;DHT22;27037;52.010;4.446;2022-11-20T15:56:40;4.20;99.90
41294;DHT22;27037;52.010;4.446;2022-11-20T15:59:05;4.20;99.90
41294;DHT22;27037;52.010;4.446;2022-11-20T16:01:31;4.20;99.90
41294;DHT22;27037;52.010;4.446;2022-11-20T16:03:57;4.20;99.90
41294;DHT22;27037;52.010;4.446;2022-11-20T16:06:22;4.10;99.90
41294;DHT22;27037;52.010;4.446;2022-11-20T16:08:48;4.10;99.90
41294;DHT22;27037;52.010;4.446;2022-11-20T16:11:15;4.10;99.90
41294;DHT22;27037;52.010;4.446;2022-11-20T16:13:42;4.10;99.90
41294;DHT22;27037;52.010;4.446;2022-11-20T16:16:29;4.10;99.90
41294;DHT22;27037;52.010;4.446;2022-11-20T16:18:56;4.10;99.90
41294;DHT22;27037;52.010;4.446;2022-11-20T16:21:22;4.10;99.90
41294;DHT22;27037;52.010;4.446;2022-11-20T16:24:01;4.10;99.90
41294;DHT22;27037;52.010;4.446;2022-11-20T16:26:27;4.10;99.90
41294;DHT22;27037;52.010;4.446;2022-11-20T16:28:53;4.10;99.90
41294;DHT22;27037;52.010;4.446;2022-11-20T16:31:19;4.10;99.90
41294;DHT22;27037;52.010;4.446;2022-11-20T16:33:53;4.10;99.90
41294;DHT22;27037;52.010;4.446;2022-11-20T16:36:19;4.10;99.90
41294;DHT22;27037;52.010;4.446;2022-11-20T16:38:46;4.10;99.90
41294;DHT22;27037;52.010;4.446;2022-11-20T16:41:12;4.10;99.90
41294;DHT22;27037;52.010;4.446;2022-11-20T16:43:52;4.10;99.90
41294;DHT22;27037;52.010;4.446;2022-11-20T16:46:19;4.10;99.90
41294;DHT22;27037;52.010;4.446;2022-11-20T16:48:53;4.00;99.90
41294;DHT22;27037;52.010;4.446;2022-11-20T16:51:19;4.10;99.90
41294;DHT22;27037;52.010;4.446;2022-11-20T16:53:45;4.10;99.90
41294;DHT22;27037;52.010;4.446;2022-11-20T16:56:16;4.10;99.90
41294;DHT22;27037;52.010;4.446;2022-11-20T16:58:43;4.10;99.90
41294;DHT22;27037;52.010;4.446;2022-11-20T17:01:10;4.10;99.90
41294;DHT22;27037;52.010;4.446;2022-11-20T17:03:37;4.10;99.90
41294;DHT22;27037;52.010;4.446;2022-11-20T17:06:14;4.10;99.90
41294;DHT22;27037;52.010;4.446;2022-11-20T17:08:41;4.20;99.90
41294;DHT22;27037;52.010;4.446;2022-11-20T17:11:07;4.20;99.90
41294;DHT22;27037;52.010;4.446;2022-11-20T17:13:34;4.20;99.90